Time;durP1;ratioP1;P1;durP2;ratioP2;P2;SDS_P1;SDS_P2;PMS_P1;PMS_P2;Temp;Humidity;BMP_temperature;BMP_pressure;BME280_temperature;BME280_humidity;BME280_pressure;Samples;Min_cycle;Max_cycle;Signal;HPM_P1;HPM_P2
2021/10/20 00:00:11;;;;;;;24.33;21.85;;;;;;;24.26;22.62;95578.22;5015450;28;20050;-51
2021/10/20 00:02:42;;;;;;;24.40;21.90;;;;;;;24.43;22.27;95580.56;5015811;28;20057;-52
2021/10/20 00:05:09;;;;;;;25.10;22.70;;;;;;;24.48;22.38;95577.66;5015930;28;20049;-51
2021/10/20 00:07:37;;;;;;;24.85;22.30;;;;;;;24.32;22.51;95579.56;5015287;28;20049;-59
2021/10/20 00:10:05;;;;;;;26.25;23.13;;;;;;;24.24;22.52;95581.25;5015786;28;20050;-56
2021/10/20 00:12:32;;;;;;;25.42;22.75;;;;;;;24.45;22.16;95575.66;5015064;28;20488;-50
2021/10/20 00:14:59;;;;;;;27.83;24.98;;;;;;;24.22;22.55;95572.81;5015868;28;20054;-52
2021/10/20 00:17:26;;;;;;;31.33;27.92;;;;;;;24.58;22.07;95577.13;5016102;28;20046;-53
2021/10/20 00:19:58;;;;;;;32.10;28.60;;;;;;;24.15;22.55;95567.25;5015350;28;20436;-56
2021/10/20 00:22:25;;;;;;;35.03;30.67;;;;;;;24.18;22.33;95571.13;5015840;28;20053;-55
2021/10/20 00:24:53;;;;;;;32.33;28.63;;;;;;;24.16;22.32;95568.03;5015852;28;20046;-53
2021/10/20 00:27:20;;;;;;;33.45;29.55;;;;;;;23.92;22.71;95576.97;5015588;28;20337;-54
2021/10/20 00:29:47;;;;;;;33.50;30.02;;;;;;;24.02;22.44;95575.69;5012784;28;20392;-53
2021/10/20 00:32:14;;;;;;;34.05;29.13;;;;;;;24.10;22.25;95566.75;4997291;28;20058;-52
2021/10/20 00:34:41;;;;;;;31.77;28.48;;;;;;;24.15;22.32;95566.47;5015348;28;20045;-53
2021/10/20 00:37:08;;;;;;;33.10;29.38;;;;;;;24.01;22.50;95571.47;5015453;28;20050;-55
2021/10/20 00:39:35;;;;;;;35.15;28.58;;;;;;;24.00;22.56;95570.69;5014325;28;20050;-59
2021/10/20 00:42:03;;;;;;;30.25;27.15;;;;;;;24.10;22.66;95564.06;5014728;28;20050;-48
2021/10/20 00:44:43;;;;;;;33.03;28.63;;;;;;;24.32;22.24;95552.81;5015184;28;20054;-59
2021/10/20 00:47:10;;;;;;;29.95;26.85;;;;;;;24.37;22.14;95565.94;5015631;28;20056;-53
2021/10/20 00:49:38;;;;;;;31.20;27.90;;;;;;;24.22;22.63;95564.00;5015447;28;20049;-53
2021/10/20 00:52:05;;;;;;;30.70;27.55;;;;;;;24.31;22.61;95561.97;5015157;28;20050;-53
2021/10/20 00:54:32;;;;;;;28.65;25.67;;;;;;;23.93;22.48;95559.81;5015122;28;20049;-60
2021/10/20 00:56:59;;;;;;;28.70;25.38;;;;;;;23.97;22.13;95561.47;5014869;28;20057;-54
2021/10/20 00:59:26;;;;;;;28.88;25.75;;;;;;;24.27;21.90;95553.06;5014853;28;20050;-51
2021/10/20 01:01:53;;;;;;;28.45;25.55;;;;;;;24.14;22.00;95565.72;5014322;28;20049;-52
2021/10/20 01:04:20;;;;;;;27.60;24.67;;;;;;;24.12;21.98;95551.16;5015334;28;20068;-52
2021/10/20 01:06:48;;;;;;;27.02;24.00;;;;;;;24.07;21.82;95554.06;5015079;28;20049;-54
2021/10/20 01:09:15;;;;;;;27.55;24.70;;;;;;;23.95;22.11;95560.28;5014813;28;20449;-58
2021/10/20 01:11:42;;;;;;;27.10;24.15;;;;;;;23.86;22.21;95557.75;5013934;28;20046;-52
2021/10/20 01:14:09;;;;;;;25.92;23.23;;;;;;;23.67;22.47;95557.59;5013190;28;20053;-50
2021/10/20 01:16:36;;;;;;;27.33;24.08;;;;;;;24.05;21.79;95550.97;5015255;28;20488;-50
2021/10/20 01:19:05;;;;;;;26.25;23.65;;;;;;;23.78;22.24;95557.91;5014048;28;20337;-56
2021/10/20 01:21:33;;;;;;;28.88;25.77;;;;;;;23.94;22.12;95551.50;5014128;28;20084;-54
2021/10/20 01:24:01;;;;;;;29.23;25.88;;;;;;;23.62;22.47;95544.50;5015030;28;20045;-50
2021/10/20 01:26:29;;;;;;;26.30;23.50;;;;;;;23.90;22.37;95534.56;5014668;28;20053;-53
2021/10/20 01:28:56;;;;;;;25.77;23.15;;;;;;;23.79;22.50;95544.22;5014982;28;20041;-51
2021/10/20 01:31:23;;;;;;;26.13;23.05;;;;;;;23.79;22.39;95538.09;5014838;28;20061;-55
2021/10/20 01:33:50;;;;;;;25.67;23.27;;;;;;;23.54;22.60;95538.19;5014845;28;20062;-54
2021/10/20 01:36:17;;;;;;;25.83;23.20;;;;;;;23.82;22.24;95548.88;5014768;28;20049;-51
2021/10/20 01:38:45;;;;;;;28.30;23.13;;;;;;;24.03;22.34;95547.88;5014700;28;20056;-48
2021/10/20 01:41:13;;;;;;;25.17;22.60;;;;;;;23.81;22.29;95539.31;5013758;28;20046;-52
2021/10/20 01:43:48;;;;;;;25.42;21.90;;;;;;;23.93;22.20;95538.44;5014875;28;20061;-51
2021/10/20 01:46:21;;;;;;;24.55;22.13;;;;;;;23.46;22.76;95541.78;5014295;28;20057;-54
2021/10/20 01:48:49;;;;;;;24.40;22.02;;;;;;;23.88;22.19;95547.50;5014545;28;20368;-53
2021/10/20 01:51:16;;;;;;;25.67;23.08;;;;;;;23.60;22.47;95542.19;5014684;28;20045;-49
2021/10/20 01:53:44;;;;;;;24.80;22.40;;;;;;;23.52;22.62;95550.31;4997766;28;20042;-57
2021/10/20 01:56:12;;;;;;;23.67;21.25;;;;;;;23.55;22.52;95547.75;5014183;28;20056;-53
2021/10/20 01:58:40;;;;;;;23.17;20.77;;;;;;;23.57;22.50;95548.22;5014193;28;20049;-51
2021/10/20 02:01:08;;;;;;;23.02;20.63;;;;;;;23.56;22.47;95544.00;5013876;28;20061;-51
2021/10/20 02:03:36;;;;;;;22.48;20.17;;;;;;;23.30;22.78;95533.72;5014382;28;20519;-50
2021/10/20 02:06:06;;;;;;;21.52;19.52;;;;;;;23.74;22.29;95552.47;5014046;28;20058;-55
2021/10/20 02:08:33;;;;;;;20.67;18.70;;;;;;;23.83;22.10;95544.31;5014153;28;20057;-54
2021/10/20 02:11:00;;;;;;;20.67;18.52;;;;;;;23.79;22.22;95544.22;5013834;28;20053;-53
2021/10/20 02:13:27;;;;;;;22.08;19.80;;;;;;;23.86;22.24;95533.72;5013878;28;20057;-62
2021/10/20 02:15:54;;;;;;;22.75;20.50;;;;;;;23.74;22.52;95530.34;5013572;28;20049;-56
2021/10/20 02:18:22;;;;;;;20.77;18.60;;;;;;;23.80;22.10;95531.66;5014033;28;20050;-57
2021/10/20 02:20:51;;;;;;;21.65;19.52;;;;;;;23.51;22.28;95533.53;5013986;28;20056;-54
2021/10/20 02:23:19;;;;;;;20.00;17.83;;;;;;;23.53;22.41;95528.63;5013840;28;20045;-52
2021/10/20 02:25:47;;;;;;;20.35;18.35;;;;;;;23.45;22.26;95534.13;5013612;28;20053;-50
2021/10/20 02:28:14;;;;;;;20.52;18.33;;;;;;;23.59;22.35;95532.63;5013987;28;20057;-49
2021/10/20 02:30:41;;;;;;;18.55;16.75;;;;;;;23.60;22.02;95536.06;5014178;28;20064;-56
2021/10/20 02:33:09;;;;;;;21.23;17.70;;;;;;;23.58;22.12;95533.75;5014104;28;20049;-54
2021/10/20 02:35:37;;;;;;;21.08;16.35;;;;;;;23.37;22.46;95533.13;5013958;28;20061;-50
2021/10/20 02:38:04;;;;;;;18.17;16.48;;;;;;;23.71;22.06;95547.81;5013595;28;20048;-49
2021/10/20 02:40:31;;;;;;;18.17;16.38;;;;;;;23.62;21.78;95539.94;5013930;28;20052;-57
2021/10/20 02:42:58;;;;;;;19.58;17.65;;;;;;;23.42;22.27;95540.91;5013132;28;20392;-53
2021/10/20 02:45:25;;;;;;;19.60;17.70;;;;;;;23.76;21.96;95544.91;5013176;28;20049;-53
2021/10/20 02:47:52;;;;;;;20.83;17.90;;;;;;;23.44;21.86;95544.03;5013387;28;20352;-54
2021/10/20 02:50:21;;;;;;;19.73;17.63;;;;;;;23.62;21.85;95542.63;5013497;28;20476;-54
2021/10/20 02:52:48;;;;;;;18.45;16.58;;;;;;;23.56;21.76;95540.53;5013471;28;20041;-52
2021/10/20 02:55:15;;;;;;;21.98;17.70;;;;;;;23.49;21.91;95546.44;5013006;28;20364;-53
2021/10/20 02:57:42;;;;;;;18.00;16.13;;;;;;;23.52;21.82;95550.31;5013093;28;20060;-53
2021/10/20 03:00:10;;;;;;;21.25;16.30;;;;;;;23.44;21.90;95548.56;5013739;28;20048;-54
2021/10/20 03:02:37;;;;;;;20.80;16.48;;;;;;;23.35;21.80;95541.47;5013089;28;20046;-56
2021/10/20 03:05:05;;;;;;;18.75;16.05;;;;;;;23.14;22.08;95540.88;5013239;28;20050;-51
2021/10/20 03:07:32;;;;;;;20.40;16.52;;;;;;;23.31;22.27;95537.94;5013235;28;20056;-53
2021/10/20 03:10:00;;;;;;;18.55;16.55;;;;;;;23.54;21.76;95542.75;5013064;28;20045;-55
2021/10/20 03:12:27;;;;;;;22.20;17.23;;;;;;;23.42;21.71;95534.78;5012152;28;20056;-52
2021/10/20 03:14:54;;;;;;;19.98;16.48;;;;;;;23.54;22.11;95545.41;5012634;28;20053;-54
2021/10/20 03:17:23;;;;;;;18.95;17.00;;;;;;;23.63;21.93;95540.72;5012837;28;20049;-54
2021/10/20 03:19:50;;;;;;;18.35;16.40;;;;;;;23.49;21.58;95535.75;5012429;28;20049;-51
2021/10/20 03:22:17;;;;;;;19.90;17.52;;;;;;;23.48;21.85;95533.44;5012728;28;20056;-54
2021/10/20 03:24:44;;;;;;;21.10;16.92;;;;;;;23.55;21.84;95533.63;5012745;28;20381;-55
2021/10/20 03:27:12;;;;;;;20.25;18.17;;;;;;;23.76;21.89;95533.44;5012475;28;20049;-53
2021/10/20 03:29:39;;;;;;;20.02;18.05;;;;;;;23.59;22.10;95534.53;5013000;28;20056;-55
2021/10/20 03:32:06;;;;;;;20.55;17.63;;;;;;;23.52;21.90;95535.09;5012890;28;20045;-51
2021/10/20 03:34:33;;;;;;;18.23;16.42;;;;;;;23.29;21.92;95532.16;5012095;28;20050;-53
2021/10/20 03:37:00;;;;;;;20.13;17.08;;;;;;;23.29;21.89;95531.38;5012364;28;20053;-50
2021/10/20 03:39:27;;;;;;;18.45;15.82;;;;;;;23.56;21.75;95529.88;5011873;28;20057;-50
2021/10/20 03:41:54;;;;;;;18.15;16.35;;;;;;;23.44;21.56;95533.34;5012575;28;20050;-55
2021/10/20 03:44:21;;;;;;;17.80;15.40;;;;;;;23.38;21.59;95534.69;5012669;28;20054;-54
2021/10/20 03:46:48;;;;;;;19.08;16.50;;;;;;;23.42;21.85;95534.78;5012669;28;20053;-52
2021/10/20 03:49:15;;;;;;;19.08;16.70;;;;;;;23.20;21.80;95526.19;5011422;28;20049;-51
2021/10/20 03:51:42;;;;;;;18.17;15.98;;;;;;;23.20;21.88;95528.88;5012277;28;20791;-53
2021/10/20 03:54:09;;;;;;;18.77;15.55;;;;;;;23.27;22.14;95529.06;5011773;28;20050;-53
2021/10/20 03:56:36;;;;;;;19.73;17.02;;;;;;;23.56;21.48;95529.88;5012832;28;20054;-54
2021/10/20 03:59:03;;;;;;;21.20;18.65;;;;;;;23.24;21.83;95529.75;4999233;28;20077;-51
2021/10/20 04:01:30;;;;;;;21.05;18.80;;;;;;;23.04;22.27;95525.34;5011988;28;20480;-55
2021/10/20 04:03:57;;;;;;;22.30;20.05;;;;;;;23.07;22.20;95524.66;5012073;28;20056;-53
2021/10/20 04:06:24;;;;;;;22.10;19.33;;;;;;;23.24;21.76;95526.28;5012513;28;20053;-52
2021/10/20 04:08:51;;;;;;;20.58;18.35;;;;;;;22.62;22.40;95519.47;5012277;28;20056;-55
2021/10/20 04:11:18;;;;;;;19.83;17.75;;;;;;;22.67;22.37;95527.28;5020168;28;20056;-54
2021/10/20 04:13:45;;;;;;;19.80;17.67;;;;;;;22.28;22.62;95531.38;5009323;28;20060;-52
2021/10/20 04:16:13;;;;;;;20.90;18.13;;;;;;;22.32;22.75;95521.59;5012708;28;20057;-55
2021/10/20 04:18:40;;;;;;;19.25;17.13;;;;;;;22.17;23.25;95527.59;5005039;28;20046;-51
2021/10/20 04:21:07;;;;;;;20.02;16.83;;;;;;;22.26;23.18;95522.94;5005560;28;20046;-54
2021/10/20 04:23:34;;;;;;;22.55;17.75;;;;;;;22.23;22.89;95528.94;5012269;28;20042;-56
2021/10/20 04:26:01;;;;;;;22.40;18.48;;;;;;;21.43;24.31;95522.06;5012533;28;20354;-56
2021/10/20 04:28:28;;;;;;;20.85;16.83;;;;;;;22.94;24.76;95525.81;5009428;28;20050;-68
2021/10/20 04:30:55;;;;;;;16.15;14.55;;;;;;;26.34;22.45;95520.66;4995557;28;20057;-69
2021/10/20 04:33:22;;;;;;;24.38;17.42;;;;;;;26.89;20.64;95535.28;4997069;28;20492;-56
2021/10/20 04:35:49;;;;;;;26.95;17.00;;;;;;;28.23;18.80;95519.19;5009205;28;20057;-57
2021/10/20 04:38:16;;;;;;;22.60;16.77;;;;;;;28.99;17.82;95532.06;4997625;28;20058;-60
2021/10/20 04:40:43;;;;;;;19.83;17.67;;;;;;;29.64;17.13;95528.50;5001097;28;20050;-58
2021/10/20 04:43:10;;;;;;;19.50;15.18;;;;;;;30.10;17.11;95535.19;4999812;28;20453;-65
2021/10/20 04:45:38;;;;;;;23.85;14.77;;;;;;;30.13;18.58;95527.09;5013388;28;20057;-62
2021/10/20 04:48:05;;;;;;;17.98;16.08;;;;;;;30.18;18.40;95528.63;5015009;28;20068;-57
2021/10/20 04:50:32;;;;;;;26.75;17.38;;;;;;;30.54;18.58;95530.22;5014269;28;20742;-65
2021/10/20 04:52:59;;;;;;;22.02;17.13;;;;;;;32.15;15.80;95541.28;5008717;28;20049;-56
2021/10/20 04:55:26;;;;;;;22.13;18.63;;;;;;;31.36;15.99;95545.53;4999000;28;20050;-49
2021/10/20 04:57:54;;;;;;;21.67;19.58;;;;;;;30.72;16.12;95545.66;4996539;28;20046;-50
2021/10/20 05:00:23;;;;;;;20.92;18.73;;;;;;;30.07;16.44;95539.44;5005227;28;20053;-48
2021/10/20 05:02:50;;;;;;;21.75;19.45;;;;;;;29.69;16.58;95546.25;5005464;28;20057;-52
2021/10/20 05:05:17;;;;;;;22.58;20.15;;;;;;;29.40;16.64;95538.00;4995999;28;20042;-58
2021/10/20 05:07:49;;;;;;;22.90;20.50;;;;;;;29.23;16.83;95536.03;4996090;28;20053;-49
2021/10/20 05:10:20;;;;;;;24.55;21.23;;;;;;;28.80;17.10;95551.91;5003973;28;20054;-53
2021/10/20 05:12:47;;;;;;;24.88;22.15;;;;;;;28.80;17.10;95541.13;5010958;28;20057;-49
2021/10/20 05:15:15;;;;;;;28.15;22.73;;;;;;;28.77;17.05;95541.13;4994720;28;20076;-50
2021/10/20 05:17:43;;;;;;;24.80;22.17;;;;;;;28.56;17.27;95547.88;4995778;28;20050;-52
2021/10/20 05:20:12;;;;;;;25.98;21.63;;;;;;;28.49;17.31;95553.22;5011796;28;20049;-50
2021/10/20 05:22:40;;;;;;;24.50;21.98;;;;;;;28.65;17.23;95554.88;5015258;28;20045;-54
2021/10/20 05:25:09;;;;;;;23.10;20.60;;;;;;;28.49;17.19;95552.44;5015167;28;20053;-56
2021/10/20 05:27:36;;;;;;;22.58;20.25;;;;;;;28.37;17.35;95548.13;5015187;28;20657;-54
2021/10/20 05:30:04;;;;;;;22.75;20.33;;;;;;;28.52;17.11;95538.25;5015115;28;20045;-50
2021/10/20 05:32:31;;;;;;;22.27;19.90;;;;;;;28.43;17.15;95543.97;5004920;28;20784;-55
2021/10/20 05:34:58;;;;;;;20.95;18.98;;;;;;;28.21;17.31;95552.94;5015328;28;20388;-56
2021/10/20 05:37:26;;;;;;;21.95;19.75;;;;;;;28.40;17.54;95555.47;5014981;28;20046;-51
2021/10/20 05:39:53;;;;;;;25.38;22.85;;;;;;;28.25;17.23;95559.94;5014768;28;20045;-53
2021/10/20 05:42:20;;;;;;;24.83;22.42;;;;;;;28.35;17.42;95555.00;5014398;28;20054;-57
2021/10/20 05:44:48;;;;;;;24.00;21.73;;;;;;;28.59;17.33;95557.13;5014892;28;20046;-49
2021/10/20 05:47:15;;;;;;;22.92;20.20;;;;;;;28.38;17.56;95562.34;5014858;28;20052;-54
2021/10/20 05:49:42;;;;;;;21.35;19.02;;;;;;;28.51;17.33;95559.00;5014488;28;20380;-52
2021/10/20 05:52:09;;;;;;;21.13;17.88;;;;;;;28.72;17.18;95563.00;5014817;28;20471;-51
2021/10/20 05:54:36;;;;;;;20.15;18.13;;;;;;;28.89;17.27;95564.28;5014769;28;20056;-48
2021/10/20 05:57:04;;;;;;;20.33;16.75;;;;;;;28.81;17.24;95561.53;4995124;28;20073;-56
2021/10/20 05:59:31;;;;;;;21.95;17.45;;;;;;;29.09;17.21;95568.25;4995222;28;20050;-52
2021/10/20 06:01:58;;;;;;;20.05;18.02;;;;;;;29.14;17.37;95565.19;5013351;28;20046;-51
2021/10/20 06:04:25;;;;;;;18.98;15.98;;;;;;;29.12;17.14;95562.88;5014860;28;20057;-48
2021/10/20 06:06:52;;;;;;;19.02;16.52;;;;;;;29.52;16.85;95565.81;5014889;28;20046;-53
2021/10/20 06:09:19;;;;;;;19.73;16.73;;;;;;;29.68;16.81;95561.66;5014472;28;20041;-57
2021/10/20 06:11:46;;;;;;;21.77;15.80;;;;;;;29.63;16.62;95567.38;5011687;28;20053;-53
2021/10/20 06:14:13;;;;;;;18.75;16.77;;;;;;;29.51;16.73;95561.56;5014511;28;20049;-51
2021/10/20 06:16:41;;;;;;;21.88;16.15;;;;;;;29.68;16.54;95560.88;5014526;28;20479;-51
2021/10/20 06:19:09;;;;;;;18.50;16.23;;;;;;;30.01;16.13;95562.50;5014277;28;20049;-49
2021/10/20 06:21:36;;;;;;;19.30;16.20;;;;;;;30.36;15.94;95567.97;5014097;28;20045;-58
2021/10/20 06:24:04;;;;;;;18.92;16.92;;;;;;;30.12;16.25;95576.03;5013766;28;20050;-52
2021/10/20 06:26:32;;;;;;;19.40;17.05;;;;;;;30.17;16.05;95564.84;5014260;28;20364;-57
2021/10/20 06:28:59;;;;;;;23.20;17.40;;;;;;;30.45;16.10;95570.28;5014671;28;20057;-54
2021/10/20 06:31:27;;;;;;;25.08;17.80;;;;;;;30.50;16.07;95578.00;5013824;28;20826;-49
2021/10/20 06:33:54;;;;;;;23.40;18.85;;;;;;;30.46;15.84;95571.84;5013841;28;20057;-57
2021/10/20 06:36:31;;;;;;;23.88;19.00;;;;;;;30.56;15.85;95560.25;5014084;28;20053;-52
2021/10/20 06:38:59;;;;;;;25.70;20.60;;;;;;;31.09;15.49;95575.66;5013794;28;20042;-50
2021/10/20 06:41:27;;;;;;;24.67;20.45;;;;;;;30.91;15.97;95574.91;5010264;28;20050;-50
2021/10/20 06:43:54;;;;;;;23.15;19.63;;;;;;;31.07;15.85;95583.38;5012328;28;20042;-52
2021/10/20 06:46:22;;;;;;;25.77;21.98;;;;;;;30.81;15.69;95581.09;5013891;28;20050;-53
2021/10/20 06:48:49;;;;;;;28.63;22.35;;;;;;;31.09;15.76;95585.69;5013645;28;20112;-49
2021/10/20 06:51:16;;;;;;;28.92;26.05;;;;;;;31.51;15.18;95590.25;5012467;28;20057;-54
2021/10/20 06:53:43;;;;;;;38.95;34.13;;;;;;;31.61;15.58;95594.84;5013529;28;20080;-51
2021/10/20 06:56:11;;;;;;;38.63;34.72;;;;;;;31.55;15.40;95596.41;5013619;28;20056;-50
2021/10/20 06:58:38;;;;;;;40.83;36.45;;;;;;;31.71;15.43;95591.34;5004040;28;20058;-51
2021/10/20 07:01:06;;;;;;;67.05;60.67;;;;;;;32.01;15.01;95590.81;5003308;28;20053;-51
2021/10/20 07:03:33;;;;;;;72.30;64.88;;;;;;;32.33;14.45;95601.47;5012051;28;20050;-50
2021/10/20 07:06:00;;;;;;;73.93;65.85;;;;;;;32.37;14.81;95599.50;5013664;28;20657;-48
2021/10/20 07:08:27;;;;;;;70.47;62.58;;;;;;;32.53;14.43;95599.03;4995780;28;20054;-57
2021/10/20 07:10:54;;;;;;;65.18;58.10;;;;;;;32.68;14.09;95592.31;5001076;28;20049;-54
2021/10/20 07:13:21;;;;;;;62.05;55.75;;;;;;;32.67;14.81;95600.84;5012553;28;20046;-60
2021/10/20 07:15:50;;;;;;;57.75;52.15;;;;;;;32.78;14.41;95604.22;5013177;28;20042;-61
2021/10/20 07:18:17;;;;;;;54.67;49.58;;;;;;;32.70;14.21;95597.31;5013284;28;20064;-54
2021/10/20 07:20:44;;;;;;;52.15;47.25;;;;;;;32.91;13.97;95604.53;5012880;28;20499;-55
2021/10/20 07:23:12;;;;;;;50.97;46.22;;;;;;;32.95;14.22;95606.03;5012680;28;20045;-55
2021/10/20 07:25:39;;;;;;;50.00;45.47;;;;;;;33.02;14.25;95597.84;5013127;28;20050;-53
2021/10/20 07:28:09;;;;;;;63.45;57.88;;;;;;;33.30;13.95;95606.84;5013050;28;20050;-53
2021/10/20 07:30:37;;;;;;;44.75;41.03;;;;;;;33.53;13.51;95604.31;5012916;28;20372;-55
2021/10/20 07:33:05;;;;;;;44.35;40.38;;;;;;;33.70;13.70;95603.34;5003350;28;20050;-53
2021/10/20 07:35:32;;;;;;;24.42;21.90;;;;;;;33.95;13.47;95603.06;4993358;28;20335;-54
2021/10/20 07:37:59;;;;;;;25.05;22.50;;;;;;;34.01;13.65;95609.56;4993120;28;20061;-54
2021/10/20 07:40:26;;;;;;;23.45;21.05;;;;;;;34.20;13.28;95607.38;4996419;28;20057;-53
2021/10/20 07:42:53;;;;;;;23.20;20.70;;;;;;;34.27;13.15;95602.59;5011713;28;20052;-54
2021/10/20 07:45:20;;;;;;;24.88;21.55;;;;;;;34.43;13.03;95596.59;5001313;28;20507;-56
2021/10/20 07:47:49;;;;;;;23.30;21.08;;;;;;;34.46;13.42;95593.06;4993566;28;20062;-53
2021/10/20 07:50:18;;;;;;;23.20;20.77;;;;;;;33.95;14.01;95596.88;4993275;28;20354;-56
2021/10/20 07:52:48;;;;;;;23.23;20.75;;;;;;;33.42;14.61;95590.13;5002503;28;20045;-56
2021/10/20 07:55:22;;;;;;;23.23;20.83;;;;;;;33.22;13.94;95589.13;5012493;28;20053;-55
2021/10/20 07:57:50;;;;;;;23.10;20.65;;;;;;;33.04;14.46;95595.50;5012731;28;20055;-54
2021/10/20 08:00:17;;;;;;;22.30;20.20;;;;;;;33.07;14.42;95592.00;5012855;28;20050;-54
2021/10/20 08:02:44;;;;;;;23.10;21.00;;;;;;;33.07;14.12;95594.72;5012490;28;20368;-55
2021/10/20 08:05:14;;;;;;;23.17;21.08;;;;;;;33.17;14.15;95589.59;5011796;28;20100;-55
2021/10/20 08:07:45;;;;;;;23.02;20.60;;;;;;;33.13;14.31;95586.16;5012653;28;20052;-54
2021/10/20 08:10:17;;;;;;;24.25;21.77;;;;;;;33.42;14.28;95582.00;5012551;28;20056;-55
2021/10/20 08:12:45;;;;;;;23.63;21.33;;;;;;;33.16;14.09;95590.75;5012199;28;20054;-53
2021/10/20 08:15:14;;;;;;;23.42;21.25;;;;;;;33.47;14.45;95584.25;5012311;28;20049;-54
2021/10/20 08:17:42;;;;;;;23.70;21.50;;;;;;;33.04;14.26;95581.94;5012500;28;20042;-53
2021/10/20 08:20:11;;;;;;;24.42;21.80;;;;;;;33.36;14.19;95578.19;5014681;28;20054;-53
2021/10/20 08:22:39;;;;;;;24.58;21.15;;;;;;;33.34;13.76;95586.72;5016252;28;20069;-54
2021/10/20 08:25:08;;;;;;;23.45;20.90;;;;;;;33.56;14.17;95581.81;5016293;28;20057;-53
2021/10/20 08:27:35;;;;;;;22.98;20.67;;;;;;;33.63;14.06;95581.75;5002491;28;20049;-54
2021/10/20 08:30:04;;;;;;;22.70;20.33;;;;;;;33.69;13.52;95582.81;4996820;28;20046;-56
2021/10/20 08:32:31;;;;;;;31.02;27.75;;;;;;;33.48;13.70;95572.22;5002931;28;20507;-52
2021/10/20 08:34:59;;;;;;;28.23;24.25;;;;;;;33.83;13.94;95573.78;5016088;28;20365;-54
2021/10/20 08:37:26;;;;;;;21.70;19.60;;;;;;;33.91;13.75;95579.88;5015883;28;20407;-54
2021/10/20 08:39:53;;;;;;;25.23;22.55;;;;;;;33.95;13.75;95575.16;5016255;28;20046;-53
2021/10/20 08:42:20;;;;;;;25.60;21.33;;;;;;;33.61;14.45;95573.25;5015607;28;20054;-53
2021/10/20 08:44:47;;;;;;;23.77;20.95;;;;;;;33.63;14.24;95565.47;5015148;28;20060;-54
2021/10/20 08:47:15;;;;;;;21.88;19.67;;;;;;;34.07;14.04;95566.47;5015815;28;20053;-53
2021/10/20 08:49:44;;;;;;;18.52;16.80;;;;;;;33.82;13.39;95566.00;5014746;28;20050;-56
2021/10/20 08:52:11;;;;;;;20.10;17.55;;;;;;;33.92;13.83;95559.72;5015884;28;20046;-53
2021/10/20 08:54:38;;;;;;;24.75;19.02;;;;;;;33.92;14.00;95570.56;5015708;28;20046;-53
2021/10/20 08:57:05;;;;;;;22.50;20.17;;;;;;;33.93;13.75;95553.09;5015883;28;20050;-55
2021/10/20 08:59:35;;;;;;;20.85;18.77;;;;;;;34.25;13.01;95561.53;5015631;28;20046;-55
2021/10/20 09:02:03;;;;;;;19.95;17.92;;;;;;;34.12;13.92;95557.88;5015448;28;20056;-54
2021/10/20 09:04:35;;;;;;;21.17;18.95;;;;;;;34.31;13.76;95554.47;5015515;28;20060;-55
2021/10/20 09:07:06;;;;;;;21.40;19.15;;;;;;;34.10;13.72;95554.81;5011021;28;20038;-56
2021/10/20 09:09:33;;;;;;;20.27;18.05;;;;;;;34.07;13.61;95538.56;4994862;28;20075;-54
2021/10/20 09:12:00;;;;;;;20.40;18.05;;;;;;;34.16;13.44;95550.47;5003184;28;20068;-54
2021/10/20 09:14:27;;;;;;;20.42;18.42;;;;;;;34.26;13.54;95541.38;5015708;28;20054;-54
2021/10/20 09:16:54;;;;;;;16.73;15.23;;;;;;;34.08;13.83;95542.81;5015696;28;20049;-55
2021/10/20 09:19:33;;;;;;;18.00;16.05;;;;;;;33.96;13.85;95539.50;5015157;28;20046;-54
2021/10/20 09:22:04;;;;;;;18.60;16.70;;;;;;;34.11;13.24;95540.06;5015369;28;20065;-57
2021/10/20 09:24:36;;;;;;;19.08;17.13;;;;;;;34.30;13.51;95536.66;5015263;28;20058;-57
2021/10/20 09:27:04;;;;;;;20.95;18.52;;;;;;;34.13;13.17;95532.28;5015634;28;20045;-53
2021/10/20 09:29:33;;;;;;;20.95;17.60;;;;;;;34.32;13.52;95536.25;5015370;28;20057;-54
2021/10/20 09:32:02;;;;;;;19.17;17.38;;;;;;;34.21;13.38;95539.13;5014163;28;20053;-55
2021/10/20 09:34:36;;;;;;;19.35;17.40;;;;;;;33.97;13.54;95527.47;5013998;28;20049;-55
2021/10/20 09:37:04;;;;;;;19.55;17.65;;;;;;;34.51;13.35;95529.38;5015193;28;20061;-55
2021/10/20 09:39:32;;;;;;;19.83;17.77;;;;;;;34.40;12.86;95528.81;5014991;28;20049;-54
2021/10/20 09:42:10;;;;;;;18.65;16.65;;;;;;;34.47;13.09;95517.81;5014650;28;20060;-55
2021/10/20 09:44:51;;;;;;;30.05;26.42;;;;;;;34.75;13.07;95516.56;5014704;28;20108;-55
2021/10/20 09:47:19;;;;;;;25.77;23.17;;;;;;;34.07;13.73;95517.63;5008654;28;20054;-54
2021/10/20 09:49:56;;;;;;;34.83;31.13;;;;;;;34.35;13.53;95515.69;4995249;28;20057;-52
2021/10/20 09:52:25;;;;;;;25.92;23.13;;;;;;;33.81;13.77;95511.00;4997821;28;20381;-52
2021/10/20 09:54:52;;;;;;;22.55;20.33;;;;;;;34.52;13.69;95509.19;5013489;28;20046;-54
2021/10/20 09:57:29;;;;;;;25.10;19.60;;;;;;;34.25;13.81;95517.38;5014617;28;20057;-52
2021/10/20 09:59:57;;;;;;;20.83;18.67;;;;;;;34.27;13.38;95513.06;5014935;28;20455;-53
2021/10/20 10:02:25;;;;;;;21.67;19.67;;;;;;;34.57;13.70;95506.00;5014684;28;20049;-52
2021/10/20 10:04:52;;;;;;;21.08;18.38;;;;;;;34.33;13.82;95500.56;5013082;28;20057;-54
2021/10/20 10:07:19;;;;;;;19.15;17.33;;;;;;;35.00;13.00;95499.84;5014367;28;20448;-53
2021/10/20 10:09:46;;;;;;;19.27;17.38;;;;;;;34.71;13.33;95503.06;5014457;28;20050;-56
2021/10/20 10:12:26;;;;;;;19.98;17.98;;;;;;;34.65;13.39;95501.25;5013783;28;20062;-53
2021/10/20 10:14:58;;;;;;;20.25;18.35;;;;;;;34.97;13.21;95489.81;5014157;28;20042;-54
2021/10/20 10:17:25;;;;;;;19.88;17.88;;;;;;;34.69;13.73;95491.09;5013495;28;20067;-52
2021/10/20 10:19:52;;;;;;;20.33;18.25;;;;;;;34.77;13.32;95487.06;5013152;28;20062;-53
2021/10/20 10:22:29;;;;;;;18.88;16.88;;;;;;;34.90;12.90;95480.63;5013877;28;20129;-53
2021/10/20 10:25:02;;;;;;;35.13;31.85;;;;;;;34.80;13.40;95486.97;5014013;28;20060;-54
2021/10/20 10:27:29;;;;;;;26.67;24.05;;;;;;;34.50;13.77;95470.84;5013981;28;20049;-53
2021/10/20 10:30:03;;;;;;;23.20;20.75;;;;;;;34.60;13.64;95467.19;5014270;28;20662;-55
2021/10/20 10:32:33;;;;;;;25.35;22.65;;;;;;;34.41;13.62;95462.50;5013745;28;20057;-52
2021/10/20 10:35:07;;;;;;;21.92;19.42;;;;;;;35.08;13.22;95463.22;5013855;28;20064;-53
2021/10/20 10:37:36;;;;;;;23.70;19.80;;;;;;;35.02;13.38;95465.66;5013864;28;20334;-54
2021/10/20 10:40:23;;;;;;;19.38;17.50;;;;;;;35.01;13.02;95452.50;5013951;28;20054;-56
2021/10/20 10:42:51;;;;;;;19.73;17.10;;;;;;;34.87;13.42;95454.31;5013061;28;20050;-54
2021/10/20 10:45:23;;;;;;;19.80;17.90;;;;;;;34.90;12.97;95442.59;5013382;28;20050;-53
2021/10/20 10:48:10;;;;;;;19.98;17.95;;;;;;;34.77;13.02;95438.19;5013566;28;20133;-54
2021/10/20 10:50:43;;;;;;;18.23;16.40;;;;;;;35.05;12.88;95436.88;5013783;28;20044;-54
2021/10/20 10:53:29;;;;;;;18.85;16.60;;;;;;;34.74;13.48;95437.06;5013222;28;20054;-54
2021/10/20 10:56:02;;;;;;;17.48;15.77;;;;;;;35.11;12.88;95427.03;5013342;28;20350;-55
2021/10/20 10:58:29;;;;;;;23.85;16.38;;;;;;;34.42;13.67;95423.31;5013663;28;20048;-53
2021/10/20 11:00:56;;;;;;;19.92;16.35;;;;;;;34.59;13.39;95427.63;5013444;28;20049;-55
2021/10/20 11:03:27;;;;;;;18.70;16.92;;;;;;;34.73;13.50;95421.94;5013157;28;20075;-53
2021/10/20 11:06:00;;;;;;;19.65;17.85;;;;;;;34.81;13.23;95409.00;5013175;28;20076;-55
2021/10/20 11:08:28;;;;;;;19.58;17.58;;;;;;;34.53;13.21;95413.00;5013433;28;20048;-54
2021/10/20 11:10:55;;;;;;;18.50;16.67;;;;;;;34.45;13.50;95406.19;5013267;28;20046;-54
2021/10/20 11:13:23;;;;;;;18.63;16.55;;;;;;;34.46;13.92;95402.28;5011715;28;20045;-54
2021/10/20 11:15:50;;;;;;;17.73;15.95;;;;;;;34.57;13.40;95398.19;5013094;28;20045;-54
2021/10/20 11:18:20;;;;;;;17.80;15.98;;;;;;;34.63;13.74;95393.06;5012047;28;20042;-56
2021/10/20 11:20:47;;;;;;;16.70;15.02;;;;;;;34.65;13.58;95398.06;5013362;28;20448;-54